Time;durP1;ratioP1;P1;durP2;ratioP2;P2;SDS_P1;SDS_P2;PMS_P1;PMS_P2;Temp;Humidity;BMP_temperature;BMP_pressure;BME280_temperature;BME280_humidity;BME280_pressure;Samples;Min_cycle;Max_cycle;Signal;HPM_P1;HPM_P2
2021/07/05 00:01:20;;;;;;;1.30;1.20;;;17.50;80.50;;;;;;5083633;27;20063;-63
2021/07/05 00:03:46;;;;;;;1.92;1.13;;;17.50;80.50;;;;;;5081504;28;20947;-63
2021/07/05 00:06:12;;;;;;;1.80;1.10;;;17.50;80.50;;;;;;5078368;27;20039;-63
2021/07/05 00:08:38;;;;;;;1.73;1.20;;;17.60;80.60;;;;;;5075678;27;20036;-63
2021/07/05 00:11:04;;;;;;;2.03;1.20;;;17.50;80.60;;;;;;5080166;28;20036;-63
2021/07/05 00:13:31;;;;;;;1.42;1.33;;;17.50;80.50;;;;;;5087238;27;20028;-63
2021/07/05 00:15:58;;;;;;;1.25;1.05;;;17.50;80.60;;;;;;5081808;27;20024;-63
2021/07/05 00:18:24;;;;;;;2.92;1.20;;;17.50;80.50;;;;;;5081922;27;20039;-63
2021/07/05 00:20:50;;;;;;;2.47;1.25;;;17.60;80.60;;;;;;5079376;28;20441;-63
2021/07/05 00:23:16;;;;;;;1.90;1.20;;;17.60;80.80;;;;;;5082574;28;20040;-63
2021/07/05 00:25:42;;;;;;;1.73;1.00;;;17.60;80.80;;;;;;5080813;27;20731;-63
2021/07/05 00:28:09;;;;;;;1.73;1.05;;;17.60;80.80;;;;;;5076986;28;20047;-63
2021/07/05 00:30:35;;;;;;;2.70;1.30;;;17.70;80.80;;;;;;5077687;27;20516;-63
2021/07/05 00:33:02;;;;;;;2.95;1.45;;;17.70;80.70;;;;;;5079863;27;20103;-64
2021/07/05 00:35:28;;;;;;;1.60;1.38;;;17.70;80.60;;;;;;5073810;28;20503;-63
2021/07/05 00:37:55;;;;;;;2.63;1.17;;;17.70;80.40;;;;;;5082842;27;20036;-63
2021/07/05 00:40:22;;;;;;;1.40;1.30;;;17.70;80.40;;;;;;5080568;27;20055;-63
2021/07/05 00:42:49;;;;;;;1.63;1.08;;;17.70;80.30;;;;;;5078082;28;20036;-63
2021/07/05 00:45:16;;;;;;;2.42;1.05;;;17.70;80.30;;;;;;5080851;28;20059;-64
2021/07/05 00:47:42;;;;;;;1.80;1.13;;;17.70;80.40;;;;;;5085257;28;20043;-63
2021/07/05 00:50:10;;;;;;;1.90;0.98;;;17.70;80.40;;;;;;5078068;27;20128;-63
2021/07/05 00:52:37;;;;;;;1.90;1.20;;;17.60;80.50;;;;;;5074632;27;20077;-63
2021/07/05 00:55:08;;;;;;;1.83;1.00;;;17.60;80.30;;;;;;5076454;28;20032;-64
2021/07/05 00:57:34;;;;;;;1.10;1.00;;;17.60;80.40;;;;;;5086329;27;20032;-63
2021/07/05 01:00:00;;;;;;;2.67;1.10;;;17.70;80.30;;;;;;5083638;28;20068;-64
2021/07/05 01:02:27;;;;;;;0.98;0.90;;;17.70;80.30;;;;;;5074447;28;20054;-63
2021/07/05 01:04:53;;;;;;;2.25;0.90;;;17.70;80.30;;;;;;5079501;27;20060;-63
2021/07/05 01:07:21;;;;;;;2.60;0.90;;;17.70;80.30;;;;;;5078403;28;20032;-63
2021/07/05 01:09:48;;;;;;;1.15;1.00;;;17.60;80.10;;;;;;5082353;27;20520;-63
2021/07/05 01:12:14;;;;;;;1.95;1.20;;;17.70;80.10;;;;;;5078269;28;20522;-64
2021/07/05 01:14:40;;;;;;;1.02;0.98;;;17.70;80.10;;;;;;5082235;27;20071;-63
2021/07/05 01:17:13;;;;;;;1.30;1.15;;;17.70;80.00;;;;;;5081069;27;20827;-63
2021/07/05 01:19:42;;;;;;;2.80;0.90;;;17.60;80.00;;;;;;5083690;28;20042;-63
2021/07/05 01:22:08;;;;;;;0.90;0.90;;;17.60;80.00;;;;;;5081607;28;20044;-63
2021/07/05 01:24:35;;;;;;;2.30;1.15;;;17.50;80.00;;;;;;5076034;27;20726;-63
2021/07/05 01:27:01;;;;;;;1.80;0.90;;;17.50;80.20;;;;;;5077024;28;20445;-63
2021/07/05 01:29:27;;;;;;;1.52;1.00;;;17.50;80.20;;;;;;5080121;27;20050;-63
2021/07/05 01:31:54;;;;;;;1.10;1.00;;;17.50;80.20;;;;;;5082101;27;20043;-63
2021/07/05 01:34:20;;;;;;;1.42;1.00;;;17.60;80.50;;;;;;5078391;27;20391;-63
2021/07/05 01:36:45;;;;;;;2.13;1.13;;;17.50;80.40;;;;;;5079934;27;20039;-63
2021/07/05 01:39:11;;;;;;;2.03;0.93;;;17.50;80.40;;;;;;5083573;27;20077;-63
2021/07/05 01:41:37;;;;;;;2.63;1.15;;;17.50;80.50;;;;;;5081398;27;20459;-63
2021/07/05 01:44:03;;;;;;;2.95;1.23;;;17.60;80.50;;;;;;5083855;28;20409;-63
2021/07/05 01:46:28;;;;;;;1.65;1.20;;;17.60;80.40;;;;;;5081815;27;20054;-63
2021/07/05 01:48:54;;;;;;;2.15;0.80;;;17.60;80.30;;;;;;5085439;28;20145;-64
2021/07/05 01:51:20;;;;;;;5.88;1.02;;;17.60;80.20;;;;;;5079464;28;20043;-63
2021/07/05 01:53:46;;;;;;;1.65;0.90;;;17.60;80.10;;;;;;5077013;27;20077;-63
2021/07/05 01:56:11;;;;;;;1.13;0.80;;;17.60;80.20;;;;;;5082138;28;20403;-63
2021/07/05 01:58:38;;;;;;;1.65;0.88;;;17.60;80.30;;;;;;5087047;27;20036;-63
2021/07/05 02:01:04;;;;;;;1.45;0.85;;;17.60;80.40;;;;;;5088693;27;20608;-64
2021/07/05 02:03:30;;;;;;;2.33;0.80;;;17.60;80.30;;;;;;5082225;28;20036;-63
2021/07/05 02:05:56;;;;;;;2.50;0.90;;;17.60;80.30;;;;;;5082797;27;20086;-64
2021/07/05 02:08:22;;;;;;;0.90;0.88;;;17.60;80.30;;;;;;5083129;28;20115;-62
2021/07/05 02:10:51;;;;;;;0.80;0.77;;;17.60;80.30;;;;;;5078075;27;20159;-64
2021/07/05 02:13:26;;;;;;;0.90;0.90;;;17.70;80.30;;;;;;5083922;27;20028;-63
2021/07/05 02:15:54;;;;;;;2.17;1.10;;;17.70;80.50;;;;;;5087166;28;20035;-63
2021/07/05 02:18:20;;;;;;;1.00;0.93;;;17.60;80.10;;;;;;5086511;28;20040;-63
2021/07/05 02:20:45;;;;;;;2.28;1.13;;;17.60;80.00;;;;;;5085449;27;20036;-63
2021/07/05 02:23:13;;;;;;;1.63;1.00;;;17.60;80.00;;;;;;5079946;28;20071;-63
2021/07/05 02:25:39;;;;;;;1.23;0.82;;;17.60;80.00;;;;;;5084085;27;20055;-63
2021/07/05 02:28:09;;;;;;;0.80;0.80;;;17.60;80.00;;;;;;5085024;27;20052;-63
2021/07/05 02:30:35;;;;;;;1.00;0.90;;;17.60;80.10;;;;;;5078743;28;20024;-64
2021/07/05 02:33:02;;;;;;;2.15;1.00;;;17.60;80.00;;;;;;5081256;27;20055;-63
2021/07/05 02:35:29;;;;;;;1.70;0.70;;;17.60;80.00;;;;;;5080570;28;20038;-63
2021/07/05 02:37:56;;;;;;;4.88;0.90;;;17.60;80.00;;;;;;5078894;27;20032;-63
2021/07/05 02:40:24;;;;;;;1.42;0.90;;;17.50;79.80;;;;;;5078552;27;20443;-63
2021/07/05 02:42:50;;;;;;;1.95;0.80;;;17.50;79.80;;;;;;5083155;28;20499;-63
2021/07/05 02:45:22;;;;;;;2.00;0.88;;;17.50;80.00;;;;;;5084226;27;20105;-64
2021/07/05 02:47:49;;;;;;;1.55;0.77;;;17.50;79.90;;;;;;5081237;27;20047;-63
2021/07/05 02:50:15;;;;;;;1.58;1.00;;;17.50;79.80;;;;;;5082409;27;20032;-64
2021/07/05 02:52:40;;;;;;;0.70;0.70;;;17.50;79.60;;;;;;5082581;28;20028;-63
2021/07/05 02:55:10;;;;;;;0.82;0.82;;;17.50;79.40;;;;;;5082770;28;20054;-63
2021/07/05 02:57:37;;;;;;;1.52;1.00;;;17.50;79.40;;;;;;5084417;27;20024;-63
2021/07/05 03:00:25;;;;;;;1.90;0.70;;;17.50;79.30;;;;;;5089976;27;20031;-63
2021/07/05 03:02:52;;;;;;;1.73;1.00;;;17.40;79.50;;;;;;5080889;28;20469;-63
2021/07/05 03:05:19;;;;;;;3.03;1.17;;;17.40;79.20;;;;;;5078916;28;20629;-63
2021/07/05 03:07:45;;;;;;;2.47;0.70;;;17.30;79.30;;;;;;5087407;28;20043;-62
2021/07/05 03:10:16;;;;;;;1.10;1.00;;;17.30;79.50;;;;;;5080383;27;20032;-63
2021/07/05 03:12:43;;;;;;;2.25;0.88;;;17.20;79.70;;;;;;5083580;27;20047;-63
2021/07/05 03:15:11;;;;;;;5.78;0.95;;;17.20;79.80;;;;;;5079570;28;20682;-63
2021/07/05 03:17:37;;;;;;;1.00;0.90;;;17.10;80.00;;;;;;5085877;27;20024;-63
2021/07/05 03:20:09;;;;;;;1.02;0.80;;;17.10;80.20;;;;;;5081398;28;20032;-63
2021/07/05 03:22:35;;;;;;;3.33;0.88;;;17.10;80.70;;;;;;5079081;28;20464;-63
2021/07/05 03:25:07;;;;;;;4.65;1.08;;;17.10;80.70;;;;;;5080945;28;20028;-63
2021/07/05 03:27:33;;;;;;;1.80;0.95;;;17.10;81.00;;;;;;5083966;28;20048;-64
2021/07/05 03:29:58;;;;;;;4.32;0.98;;;17.10;81.90;;;;;;5085902;27;20067;-63
2021/07/05 03:32:24;;;;;;;3.55;1.10;;;17.10;81.10;;;;;;5080155;27;20058;-64
2021/07/05 03:34:50;;;;;;;1.00;1.00;;;17.10;81.30;;;;;;5077454;28;20039;-63
2021/07/05 03:37:17;;;;;;;6.60;1.20;;;17.00;82.10;;;;;;5077820;27;20048;-63
2021/07/05 03:39:42;;;;;;;2.83;1.27;;;17.10;81.30;;;;;;5080615;28;20399;-64
2021/07/05 03:42:08;;;;;;;3.30;1.30;;;17.00;81.40;;;;;;5081535;27;20035;-64
2021/07/05 03:44:34;;;;;;;1.50;1.30;;;17.00;81.90;;;;;;5086547;27;20499;-63
2021/07/05 03:46:59;;;;;;;3.13;1.20;;;17.00;81.90;;;;;;5085819;28;20464;-63
2021/07/05 03:49:25;;;;;;;2.80;1.05;;;17.00;82.00;;;;;;5081317;27;20044;-63
2021/07/05 03:51:51;;;;;;;1.08;0.90;;;17.10;82.20;;;;;;5084502;28;20505;-64
2021/07/05 03:54:17;;;;;;;2.25;1.40;;;17.10;82.20;;;;;;5079100;27;21047;-63
2021/07/05 03:56:43;;;;;;;3.42;1.40;;;17.10;82.20;;;;;;5086854;27;20056;-63
2021/07/05 03:59:09;;;;;;;3.70;1.45;;;17.10;82.10;;;;;;5080037;28;20116;-63
2021/07/05 04:01:35;;;;;;;1.55;1.38;;;17.20;82.20;;;;;;5082178;27;20047;-64
2021/07/05 04:04:01;;;;;;;1.88;1.48;;;17.20;82.00;;;;;;5079799;28;20036;-64
2021/07/05 04:06:27;;;;;;;7.15;1.45;;;17.30;82.00;;;;;;5082100;27;20406;-63
2021/07/05 04:08:55;;;;;;;4.70;1.58;;;17.30;81.90;;;;;;5081139;28;20035;-63
2021/07/05 04:11:20;;;;;;;2.08;1.48;;;17.40;81.70;;;;;;5082034;28;20065;-63
2021/07/05 04:13:46;;;;;;;3.15;1.48;;;17.40;81.70;;;;;;5083275;27;20036;-63
2021/07/05 04:16:12;;;;;;;2.35;1.60;;;17.40;81.50;;;;;;5079118;28;20518;-63
2021/07/05 04:18:37;;;;;;;5.20;1.42;;;17.50;81.50;;;;;;5101428;27;20032;-63
2021/07/05 04:21:03;;;;;;;2.17;1.60;;;17.40;81.60;;;;;;5078859;27;20030;-63
2021/07/05 04:23:28;;;;;;;1.88;1.40;;;17.50;81.80;;;;;;5083276;28;20448;-63
2021/07/05 04:25:55;;;;;;;2.75;1.20;;;17.50;81.90;;;;;;5079974;28;20070;-63
2021/07/05 04:28:20;;;;;;;1.92;1.15;;;17.50;81.90;;;;;;5080313;28;20078;-63
2021/07/05 04:30:46;;;;;;;1.52;1.08;;;17.60;81.90;;;;;;5079326;27;20036;-64
2021/07/05 04:33:12;;;;;;;2.20;1.70;;;17.60;81.90;;;;;;5083096;27;20082;-64
2021/07/05 04:35:38;;;;;;;5.28;1.80;;;17.60;81.70;;;;;;5079310;28;20535;-63
2021/07/05 04:38:04;;;;;;;6.05;2.55;;;17.70;81.50;;;;;;5082674;27;20116;-64
2021/07/05 04:40:32;;;;;;;3.97;1.77;;;17.70;81.50;;;;;;5082952;27;20628;-63
2021/07/05 04:42:59;;;;;;;2.08;1.10;;;17.70;81.50;;;;;;5086931;28;20479;-63
2021/07/05 04:45:27;;;;;;;1.00;0.90;;;17.70;81.20;;;;;;5086589;27;20363;-63
2021/07/05 04:47:54;;;;;;;1.90;1.42;;;17.80;81.10;;;;;;5087549;28;20046;-64
2021/07/05 04:50:20;;;;;;;1.60;1.50;;;17.80;80.90;;;;;;5083424;28;20139;-63
2021/07/05 04:52:46;;;;;;;4.22;2.65;;;17.80;80.80;;;;;;5085786;27;20523;-66
2021/07/05 04:55:14;;;;;;;1.65;1.08;;;17.80;80.90;;;;;;5084073;28;20104;-66
2021/07/05 04:57:41;;;;;;;1.45;1.30;;;17.80;80.90;;;;;;5085997;27;20036;-66
2021/07/05 05:00:30;;;;;;;6.70;2.83;;;17.80;80.80;;;;;;5085755;28;20028;-66
2021/07/05 05:02:56;;;;;;;2.95;1.80;;;17.90;80.90;;;;;;5100445;27;20498;-65
2021/07/05 05:05:22;;;;;;;4.78;2.30;;;17.90;80.80;;;;;;5084428;27;20039;-65
2021/07/05 05:07:49;;;;;;;5.18;3.88;;;17.90;80.80;;;;;;5082249;28;20032;-66
2021/07/05 05:10:17;;;;;;;2.28;1.80;;;18.00;80.60;;;;;;5084527;27;20036;-67
2021/07/05 05:12:42;;;;;;;2.95;1.85;;;18.00;80.40;;;;;;5086368;27;20445;-65
2021/07/05 05:15:10;;;;;;;3.08;2.03;;;18.00;80.40;;;;;;5085737;28;20028;-66
2021/07/05 05:17:37;;;;;;;2.20;1.00;;;18.00;80.40;;;;;;5102122;27;20058;-66
2021/07/05 05:20:08;;;;;;;1.35;1.13;;;18.00;80.30;;;;;;5086376;28;20047;-65
2021/07/05 05:22:34;;;;;;;1.88;1.10;;;18.00;80.40;;;;;;5086369;27;20085;-66
2021/07/05 05:25:00;;;;;;;2.92;0.93;;;18.10;80.30;;;;;;5083148;27;20037;-65
2021/07/05 05:27:26;;;;;;;1.50;1.20;;;18.10;80.30;;;;;;5086943;28;20036;-66
2021/07/05 05:29:51;;;;;;;3.60;1.75;;;18.10;80.40;;;;;;5086282;27;20177;-66
2021/07/05 05:32:17;;;;;;;3.03;1.10;;;18.10;80.50;;;;;;5084728;28;20047;-66
2021/07/05 05:34:43;;;;;;;1.67;1.20;;;18.10;81.30;;;;;;5082090;27;20448;-65
2021/07/05 05:37:08;;;;;;;0.80;0.80;;;18.10;80.40;;;;;;5082194;27;20159;-66
2021/07/05 05:39:34;;;;;;;0.68;0.63;;;18.20;80.60;;;;;;5081440;28;20267;-66
2021/07/05 05:42:00;;;;;;;2.33;0.90;;;18.30;80.50;;;;;;5084448;27;20043;-66
2021/07/05 05:44:25;;;;;;;7.55;3.53;;;18.40;81.10;;;;;;5085559;27;20042;-65
2021/07/05 05:46:51;;;;;;;2.08;1.20;;;18.40;80.10;;;;;;5087158;28;20039;-66
2021/07/05 05:49:17;;;;;;;2.35;1.45;;;18.50;80.10;;;;;;5085312;27;20036;-66
2021/07/05 05:51:43;;;;;;;2.45;0.98;;;18.50;80.30;;;;;;5083897;28;20124;-67
2021/07/05 05:54:10;;;;;;;1.50;1.08;;;18.50;80.20;;;;;;5085164;27;20029;-65
2021/07/05 05:56:37;;;;;;;3.45;1.30;;;18.50;80.10;;;;;;5084458;27;20040;-66
2021/07/05 05:59:07;;;;;;;1.15;0.93;;;18.60;80.50;;;;;;5085619;28;20035;-66
2021/07/05 06:01:38;;;;;;;1.42;0.88;;;18.60;80.60;;;;;;5086079;27;20507;-66
2021/07/05 06:04:04;;;;;;;2.33;0.90;;;18.70;80.20;;;;;;5084357;28;20029;-66
2021/07/05 06:06:32;;;;;;;2.28;0.90;;;18.70;80.20;;;;;;5081053;28;20043;-66
2021/07/05 06:08:58;;;;;;;4.95;1.80;;;18.70;80.10;;;;;;5083693;27;20435;-66
2021/07/05 06:11:24;;;;;;;2.10;1.08;;;18.80;80.10;;;;;;5084069;28;20067;-66
2021/07/05 06:13:50;;;;;;;1.80;0.60;;;18.90;80.10;;;;;;5076888;28;20115;-65
2021/07/05 06:16:16;;;;;;;2.80;0.70;;;18.90;79.80;;;;;;5085783;28;20070;-66
2021/07/05 06:18:42;;;;;;;4.57;1.00;;;19.00;79.30;;;;;;5089076;27;20162;-65
2021/07/05 06:21:08;;;;;;;3.13;1.00;;;19.00;79.10;;;;;;5089899;27;20406;-66
2021/07/05 06:23:34;;;;;;;3.85;1.30;;;19.10;78.90;;;;;;5088017;28;20039;-64
2021/07/05 06:26:01;;;;;;;3.58;1.20;;;19.10;78.70;;;;;;5086454;27;20036;-63
2021/07/05 06:28:29;;;;;;;2.25;1.20;;;19.10;78.60;;;;;;5098226;27;20158;-64
2021/07/05 06:30:55;;;;;;;1.08;0.70;;;19.20;78.50;;;;;;5104350;27;20032;-64
2021/07/05 06:33:22;;;;;;;1.33;1.00;;;19.20;78.20;;;;;;5087731;27;20148;-64
2021/07/05 06:35:48;;;;;;;2.58;1.30;;;19.20;78.20;;;;;;5084613;28;20035;-64
2021/07/05 06:38:16;;;;;;;4.10;1.25;;;19.20;78.20;;;;;;5090125;27;20546;-64
2021/07/05 06:40:42;;;;;;;1.35;0.77;;;19.20;78.00;;;;;;5086598;27;20033;-64
2021/07/05 06:43:08;;;;;;;2.63;1.30;;;19.30;78.20;;;;;;5082104;28;20121;-63
2021/07/05 06:45:35;;;;;;;1.30;0.68;;;19.30;78.40;;;;;;5088673;27;20618;-64
2021/07/05 06:48:01;;;;;;;2.22;0.80;;;19.40;78.40;;;;;;5090257;28;20028;-64
2021/07/05 06:50:27;;;;;;;0.98;0.88;;;19.40;78.00;;;;;;5085406;27;20166;-64
2021/07/05 06:52:54;;;;;;;2.30;0.82;;;19.40;78.00;;;;;;5088799;27;20028;-63
2021/07/05 06:55:20;;;;;;;2.78;0.70;;;19.40;77.90;;;;;;5086013;28;20097;-64
2021/07/05 06:57:46;;;;;;;3.13;0.88;;;19.50;78.00;;;;;;5087582;27;20081;-64
2021/07/05 07:00:17;;;;;;;6.18;1.73;;;19.50;78.20;;;;;;5087467;28;20032;-64
2021/07/05 07:02:44;;;;;;;1.73;0.80;;;19.50;78.20;;;;;;5077879;28;20078;-64
2021/07/05 07:05:12;;;;;;;2.92;0.70;;;19.60;78.20;;;;;;5077577;27;20036;-65
2021/07/05 07:07:43;;;;;;;1.20;0.80;;;19.60;78.20;;;;;;5087207;28;20556;-64
2021/07/05 07:10:10;;;;;;;0.63;0.57;;;19.70;77.90;;;;;;5086173;27;20048;-64
2021/07/05 07:12:38;;;;;;;0.75;0.60;;;19.70;77.90;;;;;;5082850;27;20073;-63
2021/07/05 07:15:06;;;;;;;1.95;0.60;;;19.70;77.90;;;;;;5088922;28;20039;-64
2021/07/05 07:19:57;;;;;;;0.98;0.60;;;19.80;77.80;;;;;;5087858;28;20029;-64
2021/07/05 07:22:23;;;;;;;0.68;0.50;;;19.80;77.90;;;;;;5085065;27;20051;-64
2021/07/05 07:24:48;;;;;;;1.17;0.50;;;19.90;77.60;;;;;;5103700;27;20501;-64
2021/07/05 07:27:14;;;;;;;0.60;0.60;;;19.90;77.60;;;;;;5087839;28;20044;-64
2021/07/05 07:29:40;;;;;;;1.65;0.60;;;19.90;77.70;;;;;;5085174;27;20127;-64
2021/07/05 07:32:06;;;;;;;0.50;0.50;;;19.90;77.60;;;;;;5088460;28;20154;-64
2021/07/05 07:34:31;;;;;;;1.10;0.70;;;20.00;77.70;;;;;;5084311;27;20032;-63
2021/07/05 07:37:01;;;;;;;2.58;0.60;;;20.00;77.80;;;;;;5087395;27;20503;-64
2021/07/05 07:39:34;;;;;;;2.17;0.70;;;20.10;77.70;;;;;;5086636;28;20040;-64
2021/07/05 07:41:59;;;;;;;2.15;0.68;;;20.10;76.80;;;;;;5088870;27;20070;-64
2021/07/05 07:44:25;;;;;;;0.85;0.70;;;20.20;76.50;;;;;;5085622;27;20044;-63
2021/07/05 07:46:50;;;;;;;0.52;0.52;;;20.20;76.40;;;;;;5087171;28;20373;-64
2021/07/05 07:49:16;;;;;;;1.13;0.60;;;20.20;76.00;;;;;;5088013;27;20055;-64
2021/07/05 07:51:42;;;;;;;6.63;0.57;;;20.30;76.20;;;;;;5084344;28;20067;-66
2021/07/05 07:54:07;;;;;;;1.95;0.57;;;20.30;76.10;;;;;;5093099;27;20055;-66
2021/07/05 07:56:34;;;;;;;1.85;0.50;;;20.30;76.00;;;;;;5085459;27;20900;-66
2021/07/05 07:59:02;;;;;;;0.63;0.45;;;20.30;76.20;;;;;;5086688;27;20053;-64
2021/07/05 08:01:28;;;;;;;0.52;0.52;;;20.40;75.80;;;;;;5085840;27;20905;-64
2021/07/05 08:03:54;;;;;;;1.10;0.50;;;20.40;75.60;;;;;;5086062;28;20028;-63
2021/07/05 08:06:21;;;;;;;0.65;0.50;;;20.40;75.60;;;;;;5081956;27;20035;-64
2021/07/05 08:08:49;;;;;;;0.82;0.47;;;20.50;75.70;;;;;;5087701;27;20039;-64
2021/07/05 08:11:15;;;;;;;0.40;0.40;;;20.50;75.10;;;;;;5086333;28;20054;-64
2021/07/05 08:13:41;;;;;;;2.22;0.60;;;20.60;75.10;;;;;;5087077;27;20414;-64
2021/07/05 08:16:06;;;;;;;1.33;0.40;;;20.60;75.20;;;;;;5084010;28;20036;-64
2021/07/05 08:18:32;;;;;;;0.60;0.50;;;20.60;74.90;;;;;;5087509;27;20085;-64
2021/07/05 08:20:58;;;;;;;1.20;0.60;;;20.60;74.60;;;;;;5079661;27;20115;-63
2021/07/05 08:23:23;;;;;;;0.82;0.50;;;20.70;74.20;;;;;;5078433;28;20036;-64
2021/07/05 08:25:49;;;;;;;1.00;0.50;;;20.70;74.40;;;;;;5077137;27;20024;-63
2021/07/05 08:28:15;;;;;;;1.00;0.52;;;20.70;74.40;;;;;;5078960;28;20531;-64
2021/07/05 08:30:41;;;;;;;0.65;0.50;;;20.70;73.90;;;;;;5091913;27;20122;-64
2021/07/05 08:33:07;;;;;;;0.40;0.40;;;20.80;73.80;;;;;;5086083;27;20111;-64
2021/07/05 08:35:33;;;;;;;0.68;0.50;;;20.80;73.50;;;;;;5084281;28;20375;-64
2021/07/05 08:37:59;;;;;;;0.60;0.43;;;20.70;73.20;;;;;;5088116;27;20035;-64
2021/07/05 08:40:25;;;;;;;0.77;0.60;;;20.80;73.40;;;;;;5086186;27;20032;-64
2021/07/05 08:42:54;;;;;;;0.85;0.43;;;20.80;73.50;;;;;;5098397;27;20161;-64
2021/07/05 08:45:20;;;;;;;0.50;0.50;;;20.80;73.30;;;;;;5084071;27;20083;-64
2021/07/05 08:47:49;;;;;;;0.40;0.40;;;20.70;73.00;;;;;;5087255;28;20036;-64
2021/07/05 08:50:16;;;;;;;1.67;0.40;;;20.70;73.20;;;;;;5085148;27;20063;-64
2021/07/05 08:52:43;;;;;;;1.13;0.60;;;20.70;73.70;;;;;;5086580;27;20043;-64
2021/07/05 08:55:14;;;;;;;1.42;0.60;;;20.70;73.80;;;;;;5083953;28;20442;-63
2021/07/05 08:57:41;;;;;;;0.73;0.50;;;20.70;73.70;;;;;;5084520;28;20032;-63
2021/07/05 09:00:17;;;;;;;3.13;0.50;;;20.80;74.00;;;;;;5087221;28;20039;-64
2021/07/05 09:02:43;;;;;;;0.47;0.47;;;20.80;74.30;;;;;;5098404;27;20119;-63
2021/07/05 09:05:10;;;;;;;1.30;0.50;;;20.80;74.40;;;;;;5085182;27;20270;-63
2021/07/05 09:08:03;;;;;;;1.10;1.00;;;20.80;74.40;;;;;;5086006;28;20036;-63
2021/07/05 09:10:42;;;;;;;0.60;0.60;;;20.80;73.20;;;;;;5083968;27;20406;-63
2021/07/05 09:13:10;;;;;;;1.30;0.75;;;20.90;73.50;;;;;;5076772;28;20060;-63
2021/07/05 09:15:38;;;;;;;1.98;1.88;;;20.90;73.90;;;;;;5087412;28;20038;-63
2021/07/05 09:18:23;;;;;;;4.80;4.30;;;20.90;73.90;;;;;;5085875;27;20056;-63
2021/07/05 09:20:48;;;;;;;4.78;3.65;;;21.00;74.10;;;;;;5080939;27;20029;-63
2021/07/05 09:23:15;;;;;;;4.03;3.67;;;21.00;74.00;;;;;;5086105;28;20042;-64
2021/07/05 09:25:53;;;;;;;2.92;1.60;;;21.00;74.60;;;;;;5087166;27;20032;-64
2021/07/05 09:28:22;;;;;;;1.88;0.90;;;21.00;73.50;;;;;;5087168;28;20395;-64
2021/07/05 09:30:51;;;;;;;0.47;0.47;;;21.00;73.30;;;;;;5085941;28;20506;-63
2021/07/05 09:33:18;;;;;;;0.98;0.40;;;21.00;73.10;;;;;;5084812;27;20441;-63
2021/07/05 09:35:46;;;;;;;0.95;0.52;;;21.00;73.30;;;;;;5081041;28;20032;-64
2021/07/05 09:38:11;;;;;;;0.90;0.60;;;21.10;73.80;;;;;;5082258;27;20437;-63
2021/07/05 09:40:37;;;;;;;0.60;0.40;;;21.00;73.60;;;;;;5085857;27;20052;-63
2021/07/05 09:43:21;;;;;;;0.70;0.50;;;21.00;74.20;;;;;;5087436;28;20515;-63
2021/07/05 09:45:47;;;;;;;0.40;0.40;;;21.00;74.00;;;;;;5078332;28;20063;-63
2021/07/05 09:48:13;;;;;;;1.42;0.70;;;21.00;74.60;;;;;;5084781;28;20072;-64
2021/07/05 09:50:39;;;;;;;0.77;0.75;;;21.00;74.80;;;;;;5085663;27;20115;-64
2021/07/05 09:53:44;;;;;;;1.00;0.60;;;21.10;74.70;;;;;;5083421;27;20456;-63
2021/07/05 09:56:18;;;;;;;0.90;0.65;;;21.10;74.20;;;;;;5040139;28;20030;-64
2021/07/05 09:58:43;;;;;;;1.08;0.90;;;21.10;74.20;;;;;;5028875;28;20041;-63
2021/07/05 10:01:09;;;;;;;1.50;0.95;;;21.10;73.50;;;;;;5065127;27;20033;-64
2021/07/05 10:03:38;;;;;;;2.35;0.75;;;21.10;73.70;;;;;;5087770;28;20032;-64
2021/07/05 10:06:19;;;;;;;0.95;0.80;;;21.10;73.70;;;;;;5087669;27;20024;-64
2021/07/05 10:08:48;;;;;;;1.10;1.02;;;21.20;73.60;;;;;;5090603;27;20044;-64
2021/07/05 10:11:15;;;;;;;1.38;0.80;;;21.20;73.90;;;;;;5085942;27;20466;-64
2021/07/05 10:13:41;;;;;;;3.22;0.55;;;21.20;74.00;;;;;;5087790;27;20551;-64
2021/07/05 10:16:13;;;;;;;1.27;0.77;;;21.20;73.50;;;;;;5086360;27;20032;-64
2021/07/05 10:18:40;;;;;;;0.98;0.63;;;21.20;73.50;;;;;;5087318;27;20498;-63
2021/07/05 10:21:06;;;;;;;4.13;0.80;;;21.10;73.30;;;;;;5086301;28;20170;-64
2021/07/05 10:23:33;;;;;;;1.23;0.73;;;21.10;73.40;;;;;;5089379;28;20131;-64
2021/07/05 10:25:59;;;;;;;2.53;1.58;;;21.10;73.70;;;;;;5086302;27;20035;-64
2021/07/05 10:28:24;;;;;;;0.85;0.85;;;21.00;73.40;;;;;;5088314;27;20039;-64
2021/07/05 10:30:52;;;;;;;1.70;0.77;;;21.00;73.50;;;;;;5089363;28;20061;-64
2021/07/05 10:33:18;;;;;;;1.27;0.68;;;21.00;73.50;;;;;;5085910;28;20052;-63
2021/07/05 10:35:49;;;;;;;0.60;0.55;;;21.00;74.00;;;;;;5085467;28;20059;-64
2021/07/05 10:38:20;;;;;;;2.10;1.90;;;21.00;74.20;;;;;;5085769;28;20036;-64
2021/07/05 10:40:51;;;;;;;2.35;0.80;;;21.00;73.30;;;;;;5086854;27;20036;-64
2021/07/05 10:43:43;;;;;;;1.05;0.70;;;21.00;73.80;;;;;;5086602;28;20040;-64
2021/07/05 10:46:10;;;;;;;2.28;2.05;;;21.00;73.10;;;;;;5088002;27;20024;-64
2021/07/05 10:48:42;;;;;;;1.45;0.77;;;21.00;72.70;;;;;;5082048;27;20123;-64
2021/07/05 10:51:09;;;;;;;1.52;0.50;;;21.00;72.10;;;;;;5085836;28;20028;-64
2021/07/05 10:53:35;;;;;;;1.10;0.60;;;20.90;72.10;;;;;;5088251;27;20032;-63
2021/07/05 10:56:02;;;;;;;1.65;0.70;;;20.90;72.50;;;;;;5089377;28;20039;-64
2021/07/05 10:58:33;;;;;;;4.60;1.30;;;20.90;71.90;;;;;;5087347;27;20515;-64
2021/07/05 11:01:04;;;;;;;1.25;0.70;;;20.90;71.90;;;;;;5089097;27;20036;-64
2021/07/05 11:03:36;;;;;;;1.23;0.60;;;20.90;71.80;;;;;;5088870;27;20143;-64
2021/07/05 11:06:28;;;;;;;3.30;0.68;;;20.80;71.50;;;;;;5086483;27;20038;-64
2021/07/05 11:08:55;;;;;;;1.30;0.80;;;20.80;71.80;;;;;;5086543;27;20122;-64
2021/07/05 11:11:32;;;;;;;1.05;0.70;;;20.80;72.10;;;;;;5084052;28;20039;-64
2021/07/05 11:14:20;;;;;;;1.75;0.70;;;20.80;72.10;;;;;;5088226;27;20036;-64
2021/07/05 11:16:59;;;;;;;0.60;0.50;;;20.80;71.80;;;;;;5087763;28;20398;-64
2021/07/05 11:19:40;;;;;;;0.50;0.50;;;20.70;71.60;;;;;;5101863;27;20043;-64
2021/07/05 11:22:22;;;;;;;1.77;0.50;;;20.80;70.90;;;;;;5093071;27;20047;-64
2021/07/05 11:25:19;;;;;;;0.85;0.50;;;20.70;71.40;;;;;;5085361;27;20024;-64
2021/07/05 11:27:59;;;;;;;0.47;0.40;;;20.70;71.50;;;;;;5081592;28;20036;-64
2021/07/05 11:30:44;;;;;;;0.32;0.32;;;20.60;71.20;;;;;;5085654;28;20236;-64
2021/07/05 11:33:09;;;;;;;1.85;0.50;;;20.70;71.40;;;;;;5087494;27;21060;-64
2021/07/05 11:35:43;;;;;;;1.08;0.38;;;20.60;72.00;;;;;;5082712;28;20592;-64
2021/07/05 11:38:20;;;;;;;1.02;0.45;;;20.60;71.60;;;;;;5088182;27;20029;-64
2021/07/05 11:40:46;;;;;;;1.00;0.50;;;20.60;71.80;;;;;;5087404;27;20125;-64
2021/07/05 11:43:13;;;;;;;1.90;0.57;;;20.70;71.70;;;;;;5085690;28;20515;-64
2021/07/05 11:45:46;;;;;;;1.10;0.50;;;20.70;71.10;;;;;;5087414;27;20499;-64
2021/07/05 11:48:40;;;;;;;1.05;0.45;;;20.70;70.70;;;;;;5088088;28;20028;-64
2021/07/05 11:51:34;;;;;;;0.57;0.45;;;20.70;70.40;;;;;;5083842;28;20040;-64
2021/07/05 11:54:02;;;;;;;1.15;0.40;;;20.80;70.60;;;;;;5082831;27;20032;-64
2021/07/05 11:56:35;;;;;;;0.50;0.45;;;20.80;70.90;;;;;;5084484;27;20107;-64
2021/07/05 11:59:04;;;;;;;1.02;0.40;;;20.90;70.70;;;;;;5087052;27;20028;-64
2021/07/05 12:01:31;;;;;;;0.50;0.50;;;21.00;70.10;;;;;;5087909;27;20047;-64
2021/07/05 12:03:58;;;;;;;1.25;0.60;;;21.00;70.00;;;;;;5085832;28;20036;-64
2021/07/05 12:06:24;;;;;;;0.82;0.55;;;21.10;69.70;;;;;;5077925;28;20036;-64
2021/07/05 12:09:02;;;;;;;0.60;0.50;;;21.20;69.60;;;;;;5085478;27;20057;-64
2021/07/05 12:11:33;;;;;;;0.55;0.50;;;21.20;69.30;;;;;;5086001;28;20093;-64
2021/07/05 12:14:07;;;;;;;0.40;0.40;;;21.20;69.30;;;;;;5086812;27;20035;-65
2021/07/05 12:16:33;;;;;;;0.40;0.40;;;21.30;68.60;;;;;;5083874;27;20035;-64
2021/07/05 12:19:01;;;;;;;0.88;0.60;;;21.30;69.30;;;;;;5078153;27;20504;-64
2021/07/05 12:21:31;;;;;;;0.95;0.47;;;21.30;69.20;;;;;;5083713;27;20046;-64
2021/07/05 12:24:26;;;;;;;0.60;0.60;;;21.40;68.50;;;;;;5085002;27;20089;-64
2021/07/05 12:27:03;;;;;;;2.10;0.60;;;21.40;68.20;;;;;;5087142;28;20024;-64
2021/07/05 12:29:37;;;;;;;2.13;0.60;;;21.40;68.30;;;;;;5086307;27;20043;-63
2021/07/05 12:32:12;;;;;;;0.60;0.50;;;21.40;69.10;;;;;;5088168;28;20615;-64
2021/07/05 12:34:50;;;;;;;0.45;0.40;;;21.50;69.20;;;;;;5081112;27;20698;-64
2021/07/05 12:37:19;;;;;;;0.43;0.43;;;21.60;68.60;;;;;;5084827;27;20123;-64
2021/07/05 12:39:52;;;;;;;0.50;0.40;;;21.70;68.60;;;;;;5102199;27;20028;-64
2021/07/05 12:42:29;;;;;;;1.10;0.60;;;21.70;67.80;;;;;;5085458;28;20038;-64
2021/07/05 12:44:56;;;;;;;0.52;0.50;;;21.80;68.30;;;;;;5085642;27;20066;-64
2021/07/05 12:47:22;;;;;;;0.70;0.43;;;21.80;68.10;;;;;;5087329;28;20059;-65
2021/07/05 12:49:50;;;;;;;2.25;0.60;;;21.90;68.30;;;;;;5082696;27;20036;-64
2021/07/05 12:52:16;;;;;;;0.50;0.47;;;21.90;68.00;;;;;;5085046;28;20046;-64
2021/07/05 12:54:42;;;;;;;0.35;0.35;;;21.90;67.40;;;;;;5084848;27;20230;-64
2021/07/05 12:57:11;;;;;;;1.08;0.55;;;21.90;67.10;;;;;;5087924;27;20119;-64